sensor_id;sensor_type;location;lat;lon;timestamp;temperature;humidity
20566;DHT22;10441;50.884;12.064;2022-08-02T00:00:16;15.90;99.90
20566;DHT22;10441;50.884;12.064;2022-08-02T00:02:43;15.80;99.90
20566;DHT22;10441;50.884;12.064;2022-08-02T00:05:10;15.80;99.90
20566;DHT22;10441;50.884;12.064;2022-08-02T00:07:38;15.70;99.90
20566;DHT22;10441;50.884;12.064;2022-08-02T00:10:05;15.60;99.90
20566;DHT22;10441;50.884;12.064;2022-08-02T00:12:32;15.70;99.90
20566;DHT22;10441;50.884;12.064;2022-08-02T00:14:59;15.50;99.90
20566;DHT22;10441;50.884;12.064;2022-08-02T00:17:27;15.60;99.90
20566;DHT22;10441;50.884;12.064;2022-08-02T00:19:54;15.50;99.90
20566;DHT22;10441;50.884;12.064;2022-08-02T00:22:21;15.40;99.90
20566;DHT22;10441;50.884;12.064;2022-08-02T00:24:48;15.30;99.90
20566;DHT22;10441;50.884;12.064;2022-08-02T00:27:15;15.20;99.90
20566;DHT22;10441;50.884;12.064;2022-08-02T00:29:41;15.10;99.90
20566;DHT22;10441;50.884;12.064;2022-08-02T00:32:08;15.00;99.90
20566;DHT22;10441;50.884;12.064;2022-08-02T00:34:37;15.00;99.90
20566;DHT22;10441;50.884;12.064;2022-08-02T00:37:03;15.10;99.90
20566;DHT22;10441;50.884;12.064;2022-08-02T00:39:30;15.20;99.90
20566;DHT22;10441;50.884;12.064;2022-08-02T00:41:57;15.20;99.90
20566;DHT22;10441;50.884;12.064;2022-08-02T00:44:24;15.20;99.90
20566;DHT22;10441;50.884;12.064;2022-08-02T00:46:52;15.20;99.90
20566;DHT22;10441;50.884;12.064;2022-08-02T00:49:19;15.10;99.90
20566;DHT22;10441;50.884;12.064;2022-08-02T00:51:47;15.20;99.90
20566;DHT22;10441;50.884;12.064;2022-08-02T00:54:14;15.20;99.90
20566;DHT22;10441;50.884;12.064;2022-08-02T00:56:41;15.20;99.90
20566;DHT22;10441;50.884;12.064;2022-08-02T00:59:08;15.20;99.90
20566;DHT22;10441;50.884;12.064;2022-08-02T01:01:35;15.20;99.90
20566;DHT22;10441;50.884;12.064;2022-08-02T01:04:05;15.20;99.90
20566;DHT22;10441;50.884;12.064;2022-08-02T01:06:33;15.20;99.90
20566;DHT22;10441;50.884;12.064;2022-08-02T01:09:01;15.20;99.90
20566;DHT22;10441;50.884;12.064;2022-08-02T01:11:28;15.30;99.90
20566;DHT22;10441;50.884;12.064;2022-08-02T01:13:55;15.20;99.90
20566;DHT22;10441;50.884;12.064;2022-08-02T01:16:25;15.40;99.90
20566;DHT22;10441;50.884;12.064;2022-08-02T01:18:53;15.60;99.90
20566;DHT22;10441;50.884;12.064;2022-08-02T01:21:32;15.60;99.90
20566;DHT22;10441;50.884;12.064;2022-08-02T01:24:11;15.50;99.90
20566;DHT22;10441;50.884;12.064;2022-08-02T01:26:42;15.40;99.90
20566;DHT22;10441;50.884;12.064;2022-08-02T01:29:15;15.20;99.90
20566;DHT22;10441;50.884;12.064;2022-08-02T01:31:45;15.20;99.90
20566;DHT22;10441;50.884;12.064;2022-08-02T01:34:15;15.10;99.90
20566;DHT22;10441;50.884;12.064;2022-08-02T01:36:44;14.90;99.90
20566;DHT22;10441;50.884;12.064;2022-08-02T01:39:12;14.90;99.90
20566;DHT22;10441;50.884;12.064;2022-08-02T01:41:41;14.90;99.90
20566;DHT22;10441;50.884;12.064;2022-08-02T01:44:08;14.90;99.90
20566;DHT22;10441;50.884;12.064;2022-08-02T01:46:37;14.80;99.90
20566;DHT22;10441;50.884;12.064;2022-08-02T01:49:06;14.80;99.90
20566;DHT22;10441;50.884;12.064;2022-08-02T01:51:35;14.70;99.90
20566;DHT22;10441;50.884;12.064;2022-08-02T01:54:21;14.70;99.90
20566;DHT22;10441;50.884;12.064;2022-08-02T01:56:50;14.70;99.90
20566;DHT22;10441;50.884;12.064;2022-08-02T01:59:18;14.60;99.90
20566;DHT22;10441;50.884;12.064;2022-08-02T02:01:50;14.60;99.90
20566;DHT22;10441;50.884;12.064;2022-08-02T02:04:17;14.50;99.90
20566;DHT22;10441;50.884;12.064;2022-08-02T02:06:46;14.50;99.90
20566;DHT22;10441;50.884;12.064;2022-08-02T02:09:13;14.30;99.90
20566;DHT22;10441;50.884;12.064;2022-08-02T02:11:41;14.20;99.90
20566;DHT22;10441;50.884;12.064;2022-08-02T02:14:08;14.30;99.90
20566;DHT22;10441;50.884;12.064;2022-08-02T02:16:36;14.30;99.90
20566;DHT22;10441;50.884;12.064;2022-08-02T02:19:07;14.20;99.90
20566;DHT22;10441;50.884;12.064;2022-08-02T02:21:35;14.20;99.90
20566;DHT22;10441;50.884;12.064;2022-08-02T02:24:02;14.20;99.90
20566;DHT22;10441;50.884;12.064;2022-08-02T02:26:30;14.10;99.90
20566;DHT22;10441;50.884;12.064;2022-08-02T02:28:59;14.20;99.90
20566;DHT22;10441;50.884;12.064;2022-08-02T02:31:26;14.20;99.90
20566;DHT22;10441;50.884;12.064;2022-08-02T02:33:56;14.10;99.90
20566;DHT22;10441;50.884;12.064;2022-08-02T02:36:25;14.10;99.90
20566;DHT22;10441;50.884;12.064;2022-08-02T02:38:54;14.10;99.90
20566;DHT22;10441;50.884;12.064;2022-08-02T02:41:22;14.10;99.90
20566;DHT22;10441;50.884;12.064;2022-08-02T02:43:52;14.00;99.90
20566;DHT22;10441;50.884;12.064;2022-08-02T02:46:19;14.00;99.90
20566;DHT22;10441;50.884;12.064;2022-08-02T02:48:48;14.00;99.90
20566;DHT22;10441;50.884;12.064;2022-08-02T02:51:18;14.00;99.90
20566;DHT22;10441;50.884;12.064;2022-08-02T02:53:48;13.80;99.90
20566;DHT22;10441;50.884;12.064;2022-08-02T02:56:16;13.80;99.90
20566;DHT22;10441;50.884;12.064;2022-08-02T02:58:44;13.80;99.90
20566;DHT22;10441;50.884;12.064;2022-08-02T03:01:11;13.80;99.90
20566;DHT22;10441;50.884;12.064;2022-08-02T03:03:56;13.80;99.90
20566;DHT22;10441;50.884;12.064;2022-08-02T03:06:25;13.80;99.90
20566;DHT22;10441;50.884;12.064;2022-08-02T03:08:54;13.70;99.90
20566;DHT22;10441;50.884;12.064;2022-08-02T03:11:20;13.50;99.90
20566;DHT22;10441;50.884;12.064;2022-08-02T03:13:48;13.50;99.90
20566;DHT22;10441;50.884;12.064;2022-08-02T03:16:15;13.60;99.90
20566;DHT22;10441;50.884;12.064;2022-08-02T03:18:42;13.60;99.90
20566;DHT22;10441;50.884;12.064;2022-08-02T03:21:10;13.50;99.90
20566;DHT22;10441;50.884;12.064;2022-08-02T03:23:39;13.70;99.90
20566;DHT22;10441;50.884;12.064;2022-08-02T03:26:07;13.60;99.90
20566;DHT22;10441;50.884;12.064;2022-08-02T03:28:35;13.50;99.90
20566;DHT22;10441;50.884;12.064;2022-08-02T03:31:02;13.50;99.90
20566;DHT22;10441;50.884;12.064;2022-08-02T03:33:28;13.60;99.90
20566;DHT22;10441;50.884;12.064;2022-08-02T03:35:57;13.60;99.90
20566;DHT22;10441;50.884;12.064;2022-08-02T03:38:24;13.80;99.90
20566;DHT22;10441;50.884;12.064;2022-08-02T03:40:52;13.50;99.90
20566;DHT22;10441;50.884;12.064;2022-08-02T03:43:22;13.40;99.90
20566;DHT22;10441;50.884;12.064;2022-08-02T03:45:49;13.30;99.90
20566;DHT22;10441;50.884;12.064;2022-08-02T03:48:17;13.60;99.90
20566;DHT22;10441;50.884;12.064;2022-08-02T03:50:45;13.50;99.90
20566;DHT22;10441;50.884;12.064;2022-08-02T03:53:13;13.50;99.90
20566;DHT22;10441;50.884;12.064;2022-08-02T03:55:41;13.60;99.90
20566;DHT22;10441;50.884;12.064;2022-08-02T03:58:08;13.50;99.90
20566;DHT22;10441;50.884;12.064;2022-08-02T04:00:43;13.60;99.90
20566;DHT22;10441;50.884;12.064;2022-08-02T04:03:10;13.70;99.90
20566;DHT22;10441;50.884;12.064;2022-08-02T04:05:37;13.70;99.90
20566;DHT22;10441;50.884;12.064;2022-08-02T04:08:05;13.70;99.90
20566;DHT22;10441;50.884;12.064;2022-08-02T04:10:32;13.80;99.90
20566;DHT22;10441;50.884;12.064;2022-08-02T04:13:20;13.90;99.90
20566;DHT22;10441;50.884;12.064;2022-08-02T04:15:49;14.10;99.90
20566;DHT22;10441;50.884;12.064;2022-08-02T04:18:18;14.20;99.90
20566;DHT22;10441;50.884;12.064;2022-08-02T04:20:45;14.20;99.90
20566;DHT22;10441;50.884;12.064;2022-08-02T04:23:14;14.20;99.90
20566;DHT22;10441;50.884;12.064;2022-08-02T04:25:41;14.30;99.90
20566;DHT22;10441;50.884;12.064;2022-08-02T04:28:09;14.30;99.90
20566;DHT22;10441;50.884;12.064;2022-08-02T04:30:36;14.40;99.90
20566;DHT22;10441;50.884;12.064;2022-08-02T04:33:05;14.70;99.90
20566;DHT22;10441;50.884;12.064;2022-08-02T04:35:33;14.80;99.90
20566;DHT22;10441;50.884;12.064;2022-08-02T04:38:00;15.00;99.90
20566;DHT22;10441;50.884;12.064;2022-08-02T04:40:27;15.20;99.90
20566;DHT22;10441;50.884;12.064;2022-08-02T04:42:54;15.30;99.90
20566;DHT22;10441;50.884;12.064;2022-08-02T04:45:21;16.00;99.90
20566;DHT22;10441;50.884;12.064;2022-08-02T04:47:49;17.90;99.90
20566;DHT22;10441;50.884;12.064;2022-08-02T04:50:18;19.70;99.90
20566;DHT22;10441;50.884;12.064;2022-08-02T04:52:45;20.50;99.90
20566;DHT22;10441;50.884;12.064;2022-08-02T04:55:12;20.20;99.90
20566;DHT22;10441;50.884;12.064;2022-08-02T04:57:38;20.30;99.90
20566;DHT22;10441;50.884;12.064;2022-08-02T05:00:20;21.10;99.90
20566;DHT22;10441;50.884;12.064;2022-08-02T05:02:47;21.90;99.90
20566;DHT22;10441;50.884;12.064;2022-08-02T05:05:14;21.70;99.90
20566;DHT22;10441;50.884;12.064;2022-08-02T05:07:42;22.00;99.90
20566;DHT22;10441;50.884;12.064;2022-08-02T05:10:10;22.10;99.90
20566;DHT22;10441;50.884;12.064;2022-08-02T05:12:36;22.00;99.90
20566;DHT22;10441;50.884;12.064;2022-08-02T05:15:03;22.10;99.90
20566;DHT22;10441;50.884;12.064;2022-08-02T05:17:30;22.30;99.90
20566;DHT22;10441;50.884;12.064;2022-08-02T05:19:57;22.50;99.90
20566;DHT22;10441;50.884;12.064;2022-08-02T05:22:24;23.20;99.90
20566;DHT22;10441;50.884;12.064;2022-08-02T05:24:52;23.30;99.90
20566;DHT22;10441;50.884;12.064;2022-08-02T05:27:19;22.90;99.90
20566;DHT22;10441;50.884;12.064;2022-08-02T05:29:46;23.20;99.90
20566;DHT22;10441;50.884;12.064;2022-08-02T05:32:14;23.40;99.90
20566;DHT22;10441;50.884;12.064;2022-08-02T05:34:41;22.20;99.90
20566;DHT22;10441;50.884;12.064;2022-08-02T05:37:08;24.10;99.90
20566;DHT22;10441;50.884;12.064;2022-08-02T05:39:34;23.00;99.90
20566;DHT22;10441;50.884;12.064;2022-08-02T05:42:03;23.00;99.90
20566;DHT22;10441;50.884;12.064;2022-08-02T05:44:30;22.60;99.90
20566;DHT22;10441;50.884;12.064;2022-08-02T05:46:57;22.00;99.90
20566;DHT22;10441;50.884;12.064;2022-08-02T05:49:24;22.70;99.90
20566;DHT22;10441;50.884;12.064;2022-08-02T05:51:51;23.80;99.90
20566;DHT22;10441;50.884;12.064;2022-08-02T05:54:26;22.70;99.90
20566;DHT22;10441;50.884;12.064;2022-08-02T05:57:00;22.80;99.90
20566;DHT22;10441;50.884;12.064;2022-08-02T05:59:31;23.20;99.90
20566;DHT22;10441;50.884;12.064;2022-08-02T06:02:00;22.40;99.90
20566;DHT22;10441;50.884;12.064;2022-08-02T06:04:30;23.80;99.90
20566;DHT22;10441;50.884;12.064;2022-08-02T06:07:00;24.80;99.90
20566;DHT22;10441;50.884;12.064;2022-08-02T06:09:28;23.80;99.90
20566;DHT22;10441;50.884;12.064;2022-08-02T06:11:56;22.40;99.90
20566;DHT22;10441;50.884;12.064;2022-08-02T06:14:24;21.90;99.90
20566;DHT22;10441;50.884;12.064;2022-08-02T06:16:53;23.30;99.90
20566;DHT22;10441;50.884;12.064;2022-08-02T06:19:20;25.50;99.90
20566;DHT22;10441;50.884;12.064;2022-08-02T06:21:48;25.70;99.90
20566;DHT22;10441;50.884;12.064;2022-08-02T06:24:16;26.50;99.90
20566;DHT22;10441;50.884;12.064;2022-08-02T06:26:44;26.80;99.90
20566;DHT22;10441;50.884;12.064;2022-08-02T06:29:11;25.50;99.90
20566;DHT22;10441;50.884;12.064;2022-08-02T06:31:40;24.70;99.90
20566;DHT22;10441;50.884;12.064;2022-08-02T06:34:08;27.60;99.90
20566;DHT22;10441;50.884;12.064;2022-08-02T06:36:36;27.60;99.90
20566;DHT22;10441;50.884;12.064;2022-08-02T06:39:10;27.80;99.90
20566;DHT22;10441;50.884;12.064;2022-08-02T06:41:40;26.20;99.90
20566;DHT22;10441;50.884;12.064;2022-08-02T06:44:07;26.10;99.90
20566;DHT22;10441;50.884;12.064;2022-08-02T06:46:34;25.50;99.90
20566;DHT22;10441;50.884;12.064;2022-08-02T06:49:02;24.80;99.90
20566;DHT22;10441;50.884;12.064;2022-08-02T06:51:30;22.90;99.90
20566;DHT22;10441;50.884;12.064;2022-08-02T06:53:58;24.50;99.90
20566;DHT22;10441;50.884;12.064;2022-08-02T06:56:25;26.40;99.90
20566;DHT22;10441;50.884;12.064;2022-08-02T06:58:52;28.10;99.90
20566;DHT22;10441;50.884;12.064;2022-08-02T07:01:19;26.70;99.90
20566;DHT22;10441;50.884;12.064;2022-08-02T07:03:46;25.90;99.90
20566;DHT22;10441;50.884;12.064;2022-08-02T07:06:14;25.10;99.90
20566;DHT22;10441;50.884;12.064;2022-08-02T07:08:42;25.60;99.90
20566;DHT22;10441;50.884;12.064;2022-08-02T07:11:10;26.60;99.90
20566;DHT22;10441;50.884;12.064;2022-08-02T07:13:38;27.20;99.90
20566;DHT22;10441;50.884;12.064;2022-08-02T07:16:05;27.40;99.90
20566;DHT22;10441;50.884;12.064;2022-08-02T07:18:36;25.10;99.90
20566;DHT22;10441;50.884;12.064;2022-08-02T07:21:05;26.80;99.90
20566;DHT22;10441;50.884;12.064;2022-08-02T07:23:33;25.40;99.90
20566;DHT22;10441;50.884;12.064;2022-08-02T07:26:06;27.60;99.90
20566;DHT22;10441;50.884;12.064;2022-08-02T07:28:36;27.50;99.90
20566;DHT22;10441;50.884;12.064;2022-08-02T07:31:07;26.90;99.90
20566;DHT22;10441;50.884;12.064;2022-08-02T07:33:36;26.10;99.90
20566;DHT22;10441;50.884;12.064;2022-08-02T07:36:07;27.10;99.90
20566;DHT22;10441;50.884;12.064;2022-08-02T07:38:35;26.50;99.90
20566;DHT22;10441;50.884;12.064;2022-08-02T07:41:07;24.90;99.90
20566;DHT22;10441;50.884;12.064;2022-08-02T07:43:41;25.10;99.90
20566;DHT22;10441;50.884;12.064;2022-08-02T07:46:09;25.90;99.90
20566;DHT22;10441;50.884;12.064;2022-08-02T07:48:37;27.20;99.90
20566;DHT22;10441;50.884;12.064;2022-08-02T07:51:05;28.30;99.90
20566;DHT22;10441;50.884;12.064;2022-08-02T07:53:33;27.90;99.90
20566;DHT22;10441;50.884;12.064;2022-08-02T07:56:01;26.90;99.90
20566;DHT22;10441;50.884;12.064;2022-08-02T07:58:33;27.70;99.90
20566;DHT22;10441;50.884;12.064;2022-08-02T08:01:01;26.30;99.90
20566;DHT22;10441;50.884;12.064;2022-08-02T08:03:29;28.20;99.90
20566;DHT22;10441;50.884;12.064;2022-08-02T08:06:00;27.00;99.90
20566;DHT22;10441;50.884;12.064;2022-08-02T08:08:27;26.10;99.90
20566;DHT22;10441;50.884;12.064;2022-08-02T08:10:55;27.50;99.90
20566;DHT22;10441;50.884;12.064;2022-08-02T08:13:25;26.40;99.90
20566;DHT22;10441;50.884;12.064;2022-08-02T08:15:54;26.50;99.90
20566;DHT22;10441;50.884;12.064;2022-08-02T08:18:21;24.80;99.90
20566;DHT22;10441;50.884;12.064;2022-08-02T08:20:48;25.80;99.90
20566;DHT22;10441;50.884;12.064;2022-08-02T08:23:16;26.80;99.90
20566;DHT22;10441;50.884;12.064;2022-08-02T08:25:43;27.00;99.90
20566;DHT22;10441;50.884;12.064;2022-08-02T08:28:10;25.50;99.90
20566;DHT22;10441;50.884;12.064;2022-08-02T08:30:38;25.80;99.90
20566;DHT22;10441;50.884;12.064;2022-08-02T08:33:07;25.00;99.90
20566;DHT22;10441;50.884;12.064;2022-08-02T08:35:35;25.80;99.90
20566;DHT22;10441;50.884;12.064;2022-08-02T08:38:02;25.70;99.90
20566;DHT22;10441;50.884;12.064;2022-08-02T08:40:28;28.20;99.90
20566;DHT22;10441;50.884;12.064;2022-08-02T08:42:56;28.30;99.90
20566;DHT22;10441;50.884;12.064;2022-08-02T08:45:23;29.20;99.90
20566;DHT22;10441;50.884;12.064;2022-08-02T08:47:51;30.30;99.90
20566;DHT22;10441;50.884;12.064;2022-08-02T08:50:24;28.70;99.90
20566;DHT22;10441;50.884;12.064;2022-08-02T08:52:53;26.70;99.90
20566;DHT22;10441;50.884;12.064;2022-08-02T08:55:23;25.00;99.90
20566;DHT22;10441;50.884;12.064;2022-08-02T08:57:51;28.30;99.90
20566;DHT22;10441;50.884;12.064;2022-08-02T09:00:23;28.70;99.90
20566;DHT22;10441;50.884;12.064;2022-08-02T09:02:52;27.40;99.90
20566;DHT22;10441;50.884;12.064;2022-08-02T09:05:20;28.30;99.90
20566;DHT22;10441;50.884;12.064;2022-08-02T09:07:49;27.00;99.90
20566;DHT22;10441;50.884;12.064;2022-08-02T09:10:33;26.20;99.90
20566;DHT22;10441;50.884;12.064;2022-08-02T09:13:04;26.10;99.90
20566;DHT22;10441;50.884;12.064;2022-08-02T09:15:31;26.20;99.90
20566;DHT22;10441;50.884;12.064;2022-08-02T09:18:01;28.40;99.90
20566;DHT22;10441;50.884;12.064;2022-08-02T09:20:31;29.20;99.90
20566;DHT22;10441;50.884;12.064;2022-08-02T09:23:08;29.40;99.90
20566;DHT22;10441;50.884;12.064;2022-08-02T09:25:36;28.50;99.90
20566;DHT22;10441;50.884;12.064;2022-08-02T09:28:06;28.30;99.90
20566;DHT22;10441;50.884;12.064;2022-08-02T09:30:41;27.80;99.90
20566;DHT22;10441;50.884;12.064;2022-08-02T09:33:24;28.40;99.90
20566;DHT22;10441;50.884;12.064;2022-08-02T09:35:58;27.10;99.90
20566;DHT22;10441;50.884;12.064;2022-08-02T09:38:35;26.40;99.90
20566;DHT22;10441;50.884;12.064;2022-08-02T09:41:04;27.30;99.90
20566;DHT22;10441;50.884;12.064;2022-08-02T09:43:37;28.40;99.90
20566;DHT22;10441;50.884;12.064;2022-08-02T09:46:14;28.60;99.90
20566;DHT22;10441;50.884;12.064;2022-08-02T09:48:48;27.90;99.90
20566;DHT22;10441;50.884;12.064;2022-08-02T09:51:20;28.10;99.90
20566;DHT22;10441;50.884;12.064;2022-08-02T09:53:52;29.40;99.90
20566;DHT22;10441;50.884;12.064;2022-08-02T09:56:20;31.30;99.90
20566;DHT22;10441;50.884;12.064;2022-08-02T09:58:48;30.40;99.90
20566;DHT22;10441;50.884;12.064;2022-08-02T10:01:18;30.40;99.90
20566;DHT22;10441;50.884;12.064;2022-08-02T10:03:54;30.20;99.90
20566;DHT22;10441;50.884;12.064;2022-08-02T10:06:24;30.90;99.90
20566;DHT22;10441;50.884;12.064;2022-08-02T10:08:54;29.20;99.90
20566;DHT22;10441;50.884;12.064;2022-08-02T10:11:20;29.40;99.90
20566;DHT22;10441;50.884;12.064;2022-08-02T10:13:48;30.10;99.90
20566;DHT22;10441;50.884;12.064;2022-08-02T10:16:15;31.70;99.90
20566;DHT22;10441;50.884;12.064;2022-08-02T10:18:44;30.20;99.90
20566;DHT22;10441;50.884;12.064;2022-08-02T10:21:14;30.30;99.90
20566;DHT22;10441;50.884;12.064;2022-08-02T10:23:42;29.70;99.90
20566;DHT22;10441;50.884;12.064;2022-08-02T10:26:13;30.10;99.90
20566;DHT22;10441;50.884;12.064;2022-08-02T10:28:41;29.30;99.90
20566;DHT22;10441;50.884;12.064;2022-08-02T10:31:10;29.20;99.90
20566;DHT22;10441;50.884;12.064;2022-08-02T10:33:39;30.00;99.90
20566;DHT22;10441;50.884;12.064;2022-08-02T10:36:06;30.00;99.90
20566;DHT22;10441;50.884;12.064;2022-08-02T10:38:34;30.80;99.90
20566;DHT22;10441;50.884;12.064;2022-08-02T10:41:01;30.00;99.90
20566;DHT22;10441;50.884;12.064;2022-08-02T10:43:40;30.10;99.90
20566;DHT22;10441;50.884;12.064;2022-08-02T10:46:29;30.70;99.90
20566;DHT22;10441;50.884;12.064;2022-08-02T10:49:07;30.40;99.90
20566;DHT22;10441;50.884;12.064;2022-08-02T10:54:21;28.40;99.90
20566;DHT22;10441;50.884;12.064;2022-08-02T10:56:49;28.10;99.90
20566;DHT22;10441;50.884;12.064;2022-08-02T10:59:25;29.90;99.90
20566;DHT22;10441;50.884;12.064;2022-08-02T11:01:52;28.70;99.90
20566;DHT22;10441;50.884;12.064;2022-08-02T11:04:29;29.60;99.90
20566;DHT22;10441;50.884;12.064;2022-08-02T11:07:06;30.00;99.90
20566;DHT22;10441;50.884;12.064;2022-08-02T11:09:34;28.40;99.90
20566;DHT22;10441;50.884;12.064;2022-08-02T11:12:02;28.90;99.90
20566;DHT22;10441;50.884;12.064;2022-08-02T11:14:31;30.80;99.90
20566;DHT22;10441;50.884;12.064;2022-08-02T11:17:05;32.20;99.90
20566;DHT22;10441;50.884;12.064;2022-08-02T11:19:31;32.60;98.40
20566;DHT22;10441;50.884;12.064;2022-08-02T11:21:59;33.40;97.60
20566;DHT22;10441;50.884;12.064;2022-08-02T11:24:27;32.70;96.60
20566;DHT22;10441;50.884;12.064;2022-08-02T11:26:55;29.20;98.50
20566;DHT22;10441;50.884;12.064;2022-08-02T11:29:31;28.10;99.90
20566;DHT22;10441;50.884;12.064;2022-08-02T11:31:58;27.60;99.90
20566;DHT22;10441;50.884;12.064;2022-08-02T11:34:25;28.30;99.90
20566;DHT22;10441;50.884;12.064;2022-08-02T11:36:52;29.80;99.20
20566;DHT22;10441;50.884;12.064;2022-08-02T11:39:19;29.40;99.20
20566;DHT22;10441;50.884;12.064;2022-08-02T11:41:47;29.20;99.40
20566;DHT22;10441;50.884;12.064;2022-08-02T11:44:14;30.70;98.60
20566;DHT22;10441;50.884;12.064;2022-08-02T11:46:43;30.60;97.90
20566;DHT22;10441;50.884;12.064;2022-08-02T11:49:10;29.30;97.40
20566;DHT22;10441;50.884;12.064;2022-08-02T11:51:37;30.80;97.30
20566;DHT22;10441;50.884;12.064;2022-08-02T11:54:04;32.30;96.20
20566;DHT22;10441;50.884;12.064;2022-08-02T11:56:31;32.30;95.00
20566;DHT22;10441;50.884;12.064;2022-08-02T11:59:02;30.90;96.00
20566;DHT22;10441;50.884;12.064;2022-08-02T12:01:29;31.40;95.90
20566;DHT22;10441;50.884;12.064;2022-08-02T12:03:57;32.00;95.90
20566;DHT22;10441;50.884;12.064;2022-08-02T12:06:25;31.80;95.00
20566;DHT22;10441;50.884;12.064;2022-08-02T12:08:57;32.10;95.40
20566;DHT22;10441;50.884;12.064;2022-08-02T12:11:24;31.70;93.80
20566;DHT22;10441;50.884;12.064;2022-08-02T12:13:51;31.40;95.80
20566;DHT22;10441;50.884;12.064;2022-08-02T12:16:18;31.40;94.30
20566;DHT22;10441;50.884;12.064;2022-08-02T12:19:03;31.30;95.80
20566;DHT22;10441;50.884;12.064;2022-08-02T12:21:47;31.00;94.40
20566;DHT22;10441;50.884;12.064;2022-08-02T12:24:25;29.50;96.10
20566;DHT22;10441;50.884;12.064;2022-08-02T12:26:52;29.10;96.70
20566;DHT22;10441;50.884;12.064;2022-08-02T12:29:27;30.00;96.20
20566;DHT22;10441;50.884;12.064;2022-08-02T12:31:54;30.00;95.60
20566;DHT22;10441;50.884;12.064;2022-08-02T12:34:23;30.10;95.40
20566;DHT22;10441;50.884;12.064;2022-08-02T12:36:56;29.60;95.90
20566;DHT22;10441;50.884;12.064;2022-08-02T12:39:32;29.40;95.80
20566;DHT22;10441;50.884;12.064;2022-08-02T12:41:59;29.70;96.50
20566;DHT22;10441;50.884;12.064;2022-08-02T12:44:26;29.40;95.80
20566;DHT22;10441;50.884;12.064;2022-08-02T12:46:59;30.30;94.70
20566;DHT22;10441;50.884;12.064;2022-08-02T12:49:28;30.90;94.20
20566;DHT22;10441;50.884;12.064;2022-08-02T12:51:55;30.00;94.60
20566;DHT22;10441;50.884;12.064;2022-08-02T12:54:23;29.20;95.40
20566;DHT22;10441;50.884;12.064;2022-08-02T12:56:50;30.60;94.40
20566;DHT22;10441;50.884;12.064;2022-08-02T12:59:31;30.80;94.00
20566;DHT22;10441;50.884;12.064;2022-08-02T13:02:03;31.10;94.20
20566;DHT22;10441;50.884;12.064;2022-08-02T13:04:33;31.00;93.80
20566;DHT22;10441;50.884;12.064;2022-08-02T13:07:03;32.20;92.80
20566;DHT22;10441;50.884;12.064;2022-08-02T13:09:35;32.40;91.90
20566;DHT22;10441;50.884;12.064;2022-08-02T13:12:03;33.00;92.40
20566;DHT22;10441;50.884;12.064;2022-08-02T13:14:31;33.00;91.60
20566;DHT22;10441;50.884;12.064;2022-08-02T13:16:58;29.70;93.00
20566;DHT22;10441;50.884;12.064;2022-08-02T13:19:25;29.80;93.70
20566;DHT22;10441;50.884;12.064;2022-08-02T13:21:54;29.20;94.00
20566;DHT22;10441;50.884;12.064;2022-08-02T13:24:20;28.90;94.50
20566;DHT22;10441;50.884;12.064;2022-08-02T13:26:47;28.40;94.70
20566;DHT22;10441;50.884;12.064;2022-08-02T13:29:14;28.20;95.10
20566;DHT22;10441;50.884;12.064;2022-08-02T13:31:41;29.40;94.10
20566;DHT22;10441;50.884;12.064;2022-08-02T13:34:08;31.00;93.60
20566;DHT22;10441;50.884;12.064;2022-08-02T13:36:35;29.60;92.90
20566;DHT22;10441;50.884;12.064;2022-08-02T13:39:03;29.80;93.00
20566;DHT22;10441;50.884;12.064;2022-08-02T13:41:30;30.20;93.60
20566;DHT22;10441;50.884;12.064;2022-08-02T13:43:57;30.50;92.80
20566;DHT22;10441;50.884;12.064;2022-08-02T13:46:24;31.30;93.00
20566;DHT22;10441;50.884;12.064;2022-08-02T13:48:51;31.50;92.40
20566;DHT22;10441;50.884;12.064;2022-08-02T13:51:18;31.00;92.10
20566;DHT22;10441;50.884;12.064;2022-08-02T13:53:45;31.60;91.00
20566;DHT22;10441;50.884;12.064;2022-08-02T13:56:13;32.50;91.20
20566;DHT22;10441;50.884;12.064;2022-08-02T13:58:40;31.50;91.70
20566;DHT22;10441;50.884;12.064;2022-08-02T14:01:07;30.80;91.70
20566;DHT22;10441;50.884;12.064;2022-08-02T14:03:34;30.40;91.50
20566;DHT22;10441;50.884;12.064;2022-08-02T14:06:01;31.20;92.40
20566;DHT22;10441;50.884;12.064;2022-08-02T14:08:28;32.10;91.40
20566;DHT22;10441;50.884;12.064;2022-08-02T14:10:56;31.80;91.40
20566;DHT22;10441;50.884;12.064;2022-08-02T14:13:25;31.00;92.00
20566;DHT22;10441;50.884;12.064;2022-08-02T14:15:52;31.00;91.60
20566;DHT22;10441;50.884;12.064;2022-08-02T14:18:19;32.30;91.50
20566;DHT22;10441;50.884;12.064;2022-08-02T14:20:46;30.60;90.70
20566;DHT22;10441;50.884;12.064;2022-08-02T14:23:13;31.60;90.80
20566;DHT22;10441;50.884;12.064;2022-08-02T14:25:40;31.40;91.10
20566;DHT22;10441;50.884;12.064;2022-08-02T14:28:07;32.30;90.20
20566;DHT22;10441;50.884;12.064;2022-08-02T14:30:35;32.40;89.50
20566;DHT22;10441;50.884;12.064;2022-08-02T14:33:02;33.20;88.20
20566;DHT22;10441;50.884;12.064;2022-08-02T14:35:32;33.10;88.30
20566;DHT22;10441;50.884;12.064;2022-08-02T14:38:03;32.60;88.00
20566;DHT22;10441;50.884;12.064;2022-08-02T14:40:32;32.70;88.40
20566;DHT22;10441;50.884;12.064;2022-08-02T14:43:03;32.50;88.90
20566;DHT22;10441;50.884;12.064;2022-08-02T14:45:31;32.30;89.10
20566;DHT22;10441;50.884;12.064;2022-08-02T14:47:59;32.50;88.20
20566;DHT22;10441;50.884;12.064;2022-08-02T14:50:26;32.20;87.00
20566;DHT22;10441;50.884;12.064;2022-08-02T14:52:54;34.30;85.10
20566;DHT22;10441;50.884;12.064;2022-08-02T14:55:20;32.50;84.90
20566;DHT22;10441;50.884;12.064;2022-08-02T14:57:48;33.80;85.60
20566;DHT22;10441;50.884;12.064;2022-08-02T15:00:17;34.90;85.00
20566;DHT22;10441;50.884;12.064;2022-08-02T15:02:47;32.60;82.60
20566;DHT22;10441;50.884;12.064;2022-08-02T15:05:22;32.40;84.90
20566;DHT22;10441;50.884;12.064;2022-08-02T15:07:51;34.10;82.00
20566;DHT22;10441;50.884;12.064;2022-08-02T15:10:19;34.00;81.00
20566;DHT22;10441;50.884;12.064;2022-08-02T15:12:47;34.90;83.10
20566;DHT22;10441;50.884;12.064;2022-08-02T15:15:15;35.70;81.90
20566;DHT22;10441;50.884;12.064;2022-08-02T15:17:43;35.40;79.40
20566;DHT22;10441;50.884;12.064;2022-08-02T15:20:12;33.90;80.90
20566;DHT22;10441;50.884;12.064;2022-08-02T15:22:45;34.00;79.60
20566;DHT22;10441;50.884;12.064;2022-08-02T15:25:12;33.70;80.90
20566;DHT22;10441;50.884;12.064;2022-08-02T15:27:41;32.40;80.20